sensor_id;sensor_type;location;lat;lon;timestamp;pressure;altitude;pressure_sealevel;temperature;humidity
59043;BME280;44826;51.596;5.624;2023-05-24T00:01:30;102374.59;;;9.27;67.00
59043;BME280;44826;51.596;5.624;2023-05-24T00:03:55;102364.19;;;9.21;67.46
59043;BME280;44826;51.596;5.624;2023-05-24T00:06:25;102366.75;;;9.17;67.39
59043;BME280;44826;51.596;5.624;2023-05-24T00:08:52;102363.28;;;9.11;66.91
59043;BME280;44826;51.596;5.624;2023-05-24T00:11:17;102373.63;;;9.05;68.16
59043;BME280;44826;51.596;5.624;2023-05-24T00:13:43;102369.28;;;9.03;68.16
59043;BME280;44826;51.596;5.624;2023-05-24T00:16:08;102351.09;;;9.01;68.71
59043;BME280;44826;51.596;5.624;2023-05-24T00:18:34;102358.03;;;9.01;67.94
59043;BME280;44826;51.596;5.624;2023-05-24T00:21:09;102355.41;;;8.98;68.13
59043;BME280;44826;51.596;5.624;2023-05-24T00:23:34;102351.94;;;8.95;66.99
59043;BME280;44826;51.596;5.624;2023-05-24T00:26:01;102347.56;;;8.90;67.28
59043;BME280;44826;51.596;5.624;2023-05-24T00:28:27;102341.50;;;8.86;68.79
59043;BME280;44826;51.596;5.624;2023-05-24T00:30:52;102346.69;;;8.86;69.21
59043;BME280;44826;51.596;5.624;2023-05-24T00:33:17;102350.16;;;8.85;68.42
59043;BME280;44826;51.596;5.624;2023-05-24T00:35:43;102357.91;;;8.82;68.06
59043;BME280;44826;51.596;5.624;2023-05-24T00:38:09;102346.66;;;8.80;69.29
59043;BME280;44826;51.596;5.624;2023-05-24T00:40:34;102348.38;;;8.78;69.47
59043;BME280;44826;51.596;5.624;2023-05-24T00:43:00;102343.16;;;8.75;69.79
59043;BME280;44826;51.596;5.624;2023-05-24T00:45:25;102346.59;;;8.72;69.22
59043;BME280;44826;51.596;5.624;2023-05-24T00:47:50;102350.03;;;8.67;69.61
59043;BME280;44826;51.596;5.624;2023-05-24T00:50:16;102349.13;;;8.63;69.96
59043;BME280;44826;51.596;5.624;2023-05-24T00:52:42;102350.88;;;8.62;70.13
59043;BME280;44826;51.596;5.624;2023-05-24T00:55:08;102345.69;;;8.61;70.00
59043;BME280;44826;51.596;5.624;2023-05-24T00:57:35;102339.59;;;8.57;70.26
59043;BME280;44826;51.596;5.624;2023-05-24T01:00:02;102330.06;;;8.53;70.50
59043;BME280;44826;51.596;5.624;2023-05-24T01:02:29;102330.03;;;8.50;70.51
59043;BME280;44826;51.596;5.624;2023-05-24T01:04:55;102332.56;;;8.47;70.82
59043;BME280;44826;51.596;5.624;2023-05-24T01:07:36;102322.19;;;8.47;70.39
59043;BME280;44826;51.596;5.624;2023-05-24T01:13:23;102319.56;;;8.39;70.26
59043;BME280;44826;51.596;5.624;2023-05-24T01:15:59;102322.97;;;8.35;70.63
59043;BME280;44826;51.596;5.624;2023-05-24T01:18:31;102325.53;;;8.30;71.10
59043;BME280;44826;51.596;5.624;2023-05-24T01:24:24;102322.91;;;8.29;69.45
59043;BME280;44826;51.596;5.624;2023-05-24T01:27:06;102328.09;;;8.26;70.78
59043;BME280;44826;51.596;5.624;2023-05-24T01:29:33;102315.06;;;8.18;70.84
59043;BME280;44826;51.596;5.624;2023-05-24T01:31:59;102308.97;;;8.11;71.43
59043;BME280;44826;51.596;5.624;2023-05-24T01:34:25;102316.69;;;8.07;71.46
59043;BME280;44826;51.596;5.624;2023-05-24T01:36:50;102309.72;;;7.99;71.50
59043;BME280;44826;51.596;5.624;2023-05-24T01:39:16;102320.97;;;7.98;71.95
59043;BME280;44826;51.596;5.624;2023-05-24T01:44:39;102320.91;;;7.97;70.86
59043;BME280;44826;51.596;5.624;2023-05-24T01:47:13;102314.88;;;7.96;71.71
59043;BME280;44826;51.596;5.624;2023-05-24T01:49:49;102313.13;;;7.92;71.70
59043;BME280;44826;51.596;5.624;2023-05-24T01:52:18;102312.19;;;7.87;71.76
59043;BME280;44826;51.596;5.624;2023-05-24T01:54:47;102312.16;;;7.82;71.95
59043;BME280;44826;51.596;5.624;2023-05-24T01:57:18;102314.75;;;7.81;72.50
59043;BME280;44826;51.596;5.624;2023-05-24T01:59:44;102317.31;;;7.78;72.52
59043;BME280;44826;51.596;5.624;2023-05-24T02:02:10;102313.81;;;7.74;72.63
59043;BME280;44826;51.596;5.624;2023-05-24T02:04:36;102310.31;;;7.69;72.28
59043;BME280;44826;51.596;5.624;2023-05-24T02:07:01;102314.63;;;7.68;73.22
59043;BME280;44826;51.596;5.624;2023-05-24T02:09:27;102318.06;;;7.67;73.03
59043;BME280;44826;51.596;5.624;2023-05-24T02:11:52;102312.91;;;7.67;72.81
59043;BME280;44826;51.596;5.624;2023-05-24T02:14:17;102315.50;;;7.69;72.82
59043;BME280;44826;51.596;5.624;2023-05-24T02:16:44;102319.81;;;7.68;73.11
59043;BME280;44826;51.596;5.624;2023-05-24T02:19:13;102325.84;;;7.67;72.55
59043;BME280;44826;51.596;5.624;2023-05-24T02:21:38;102326.69;;;7.66;72.55
59043;BME280;44826;51.596;5.624;2023-05-24T02:24:05;102335.28;;;7.62;72.55
59043;BME280;44826;51.596;5.624;2023-05-24T02:26:31;102335.25;;;7.60;72.41
59043;BME280;44826;51.596;5.624;2023-05-24T02:28:57;102334.34;;;7.57;71.55
59043;BME280;44826;51.596;5.624;2023-05-24T02:31:22;102335.16;;;7.50;71.94
59043;BME280;44826;51.596;5.624;2023-05-24T02:33:47;102333.34;;;7.42;72.61
59043;BME280;44826;51.596;5.624;2023-05-24T02:36:13;102328.16;;;7.41;72.89
59043;BME280;44826;51.596;5.624;2023-05-24T02:38:38;102328.16;;;7.42;73.19
59043;BME280;44826;51.596;5.624;2023-05-24T02:41:04;102335.91;;;7.41;71.78
59043;BME280;44826;51.596;5.624;2023-05-24T02:43:29;102329.81;;;7.37;73.35
59043;BME280;44826;51.596;5.624;2023-05-24T02:45:55;102323.75;;;7.35;73.85
59043;BME280;44826;51.596;5.624;2023-05-24T02:48:20;102329.84;;;7.39;74.72
59043;BME280;44826;51.596;5.624;2023-05-24T02:50:45;102332.44;;;7.39;74.22
59043;BME280;44826;51.596;5.624;2023-05-24T02:53:11;102333.28;;;7.38;72.64
59043;BME280;44826;51.596;5.624;2023-05-24T02:55:36;102334.94;;;7.33;73.43
59043;BME280;44826;51.596;5.624;2023-05-24T02:58:01;102329.75;;;7.31;74.25
59043;BME280;44826;51.596;5.624;2023-05-24T03:00:27;102323.75;;;7.34;72.41
59043;BME280;44826;51.596;5.624;2023-05-24T03:02:52;102330.59;;;7.30;72.86
59043;BME280;44826;51.596;5.624;2023-05-24T03:05:17;102327.13;;;7.28;75.01
59043;BME280;44826;51.596;5.624;2023-05-24T03:07:42;102328.03;;;7.30;75.41
59043;BME280;44826;51.596;5.624;2023-05-24T03:10:08;102324.59;;;7.31;75.17
59043;BME280;44826;51.596;5.624;2023-05-24T03:12:33;102325.44;;;7.32;74.74
59043;BME280;44826;51.596;5.624;2023-05-24T03:14:59;102318.56;;;7.34;75.35
59043;BME280;44826;51.596;5.624;2023-05-24T03:17:24;102322.91;;;7.36;76.03
59043;BME280;44826;51.596;5.624;2023-05-24T03:19:49;102322.88;;;7.35;74.77
59043;BME280;44826;51.596;5.624;2023-05-24T03:22:16;102322.00;;;7.33;74.63
59043;BME280;44826;51.596;5.624;2023-05-24T03:24:41;102309.00;;;7.29;74.85
59043;BME280;44826;51.596;5.624;2023-05-24T03:27:07;102325.38;;;7.27;74.48
59043;BME280;44826;51.596;5.624;2023-05-24T03:29:32;102321.81;;;7.19;73.90
59043;BME280;44826;51.596;5.624;2023-05-24T03:31:58;102324.41;;;7.16;74.11
59043;BME280;44826;51.596;5.624;2023-05-24T03:34:23;102320.06;;;7.14;74.58
59043;BME280;44826;51.596;5.624;2023-05-24T03:36:48;102313.16;;;7.13;74.58
59043;BME280;44826;51.596;5.624;2023-05-24T03:39:13;102314.00;;;7.12;75.11
59043;BME280;44826;51.596;5.624;2023-05-24T03:41:39;102316.56;;;7.11;74.96
59043;BME280;44826;51.596;5.624;2023-05-24T03:44:04;102320.03;;;7.11;75.17
59043;BME280;44826;51.596;5.624;2023-05-24T03:46:29;102313.06;;;7.07;75.42
59043;BME280;44826;51.596;5.624;2023-05-24T03:48:55;102317.34;;;7.05;75.49
59043;BME280;44826;51.596;5.624;2023-05-24T03:51:20;102318.25;;;7.06;75.08
59043;BME280;44826;51.596;5.624;2023-05-24T03:53:47;102310.44;;;7.04;75.29
59043;BME280;44826;51.596;5.624;2023-05-24T03:56:13;102306.94;;;7.02;75.33
59043;BME280;44826;51.596;5.624;2023-05-24T03:58:38;102312.13;;;7.02;75.42
59043;BME280;44826;51.596;5.624;2023-05-24T04:01:03;102311.22;;;6.98;75.13
59043;BME280;44826;51.596;5.624;2023-05-24T04:03:29;102312.06;;;6.96;74.94
59043;BME280;44826;51.596;5.624;2023-05-24T04:05:54;102312.06;;;6.96;75.87
59043;BME280;44826;51.596;5.624;2023-05-24T04:08:19;102310.34;;;6.95;75.44
59043;BME280;44826;51.596;5.624;2023-05-24T04:10:45;102309.44;;;6.93;75.86
59043;BME280;44826;51.596;5.624;2023-05-24T04:13:10;102310.25;;;6.89;75.74
59043;BME280;44826;51.596;5.624;2023-05-24T04:15:35;102310.19;;;6.86;75.80
59043;BME280;44826;51.596;5.624;2023-05-24T04:18:02;102313.66;;;6.86;75.87
59043;BME280;44826;51.596;5.624;2023-05-24T04:20:27;102321.47;;;6.89;76.05
59043;BME280;44826;51.596;5.624;2023-05-24T04:22:53;102324.06;;;6.91;76.11
59043;BME280;44826;51.596;5.624;2023-05-24T04:25:20;102322.38;;;6.93;76.53
59043;BME280;44826;51.596;5.624;2023-05-24T04:27:45;102317.25;;;6.96;77.13
59043;BME280;44826;51.596;5.624;2023-05-24T04:30:14;102321.59;;;6.98;76.74
59043;BME280;44826;51.596;5.624;2023-05-24T04:32:42;102315.59;;;7.03;76.98
59043;BME280;44826;51.596;5.624;2023-05-24T04:35:11;102319.97;;;7.08;77.23
59043;BME280;44826;51.596;5.624;2023-05-24T04:37:36;102322.66;;;7.14;77.34
59043;BME280;44826;51.596;5.624;2023-05-24T04:40:02;102320.97;;;7.20;78.33
59043;BME280;44826;51.596;5.624;2023-05-24T04:42:32;102316.75;;;7.26;78.43
59043;BME280;44826;51.596;5.624;2023-05-24T04:44:57;102322.88;;;7.33;78.45
59043;BME280;44826;51.596;5.624;2023-05-24T04:47:23;102324.69;;;7.40;78.59
59043;BME280;44826;51.596;5.624;2023-05-24T04:49:49;102318.72;;;7.48;79.09
59043;BME280;44826;51.596;5.624;2023-05-24T04:52:15;102320.53;;;7.56;79.43
59043;BME280;44826;51.596;5.624;2023-05-24T04:54:40;102325.81;;;7.64;79.53
59043;BME280;44826;51.596;5.624;2023-05-24T04:57:05;102320.72;;;7.73;79.32
59043;BME280;44826;51.596;5.624;2023-05-24T04:59:31;102328.56;;;7.80;79.46
59043;BME280;44826;51.596;5.624;2023-05-24T05:01:56;102322.59;;;7.88;79.42
59043;BME280;44826;51.596;5.624;2023-05-24T05:04:21;102327.84;;;7.96;79.70
59043;BME280;44826;51.596;5.624;2023-05-24T05:06:47;102330.50;;;8.04;79.42
59043;BME280;44826;51.596;5.624;2023-05-24T05:09:12;102324.50;;;8.08;79.46
59043;BME280;44826;51.596;5.624;2023-05-24T05:11:39;102323.69;;;8.14;79.21
59043;BME280;44826;51.596;5.624;2023-05-24T05:14:04;102322.00;;;8.19;79.24
59043;BME280;44826;51.596;5.624;2023-05-24T05:16:30;102319.44;;;8.25;79.08
59043;BME280;44826;51.596;5.624;2023-05-24T05:18:56;102322.94;;;8.30;79.00
59043;BME280;44826;51.596;5.624;2023-05-24T05:21:21;102328.16;;;8.35;79.10
59043;BME280;44826;51.596;5.624;2023-05-24T05:23:46;102328.19;;;8.40;79.79
59043;BME280;44826;51.596;5.624;2023-05-24T05:26:12;102331.75;;;8.48;79.85
59043;BME280;44826;51.596;5.624;2023-05-24T05:28:37;102326.59;;;8.54;79.76
59043;BME280;44826;51.596;5.624;2023-05-24T05:31:02;102337.91;;;8.61;79.84
59043;BME280;44826;51.596;5.624;2023-05-24T05:33:30;102331.00;;;8.64;80.07
59043;BME280;44826;51.596;5.624;2023-05-24T05:35:55;102328.44;;;8.71;80.00
59043;BME280;44826;51.596;5.624;2023-05-24T05:38:21;102329.31;;;8.76;80.31
59043;BME280;44826;51.596;5.624;2023-05-24T05:40:46;102328.50;;;8.80;80.27
59043;BME280;44826;51.596;5.624;2023-05-24T05:43:11;102331.13;;;8.86;80.53
59043;BME280;44826;51.596;5.624;2023-05-24T05:45:36;102329.41;;;8.91;80.50
59043;BME280;44826;51.596;5.624;2023-05-24T05:48:02;102321.66;;;8.98;80.65
59043;BME280;44826;51.596;5.624;2023-05-24T05:50:27;102331.22;;;9.05;80.71
59043;BME280;44826;51.596;5.624;2023-05-24T05:52:52;102328.63;;;9.11;79.71
59043;BME280;44826;51.596;5.624;2023-05-24T05:55:18;102329.53;;;9.16;80.36
59043;BME280;44826;51.596;5.624;2023-05-24T05:57:43;102326.09;;;9.20;80.55
59043;BME280;44826;51.596;5.624;2023-05-24T06:00:09;102333.03;;;9.27;80.00
59043;BME280;44826;51.596;5.624;2023-05-24T06:02:34;102334.81;;;9.35;80.05
59043;BME280;44826;51.596;5.624;2023-05-24T06:05:00;102330.47;;;9.40;79.95
59043;BME280;44826;51.596;5.624;2023-05-24T06:07:25;102335.69;;;9.45;79.94
59043;BME280;44826;51.596;5.624;2023-05-24T06:09:50;102337.44;;;9.50;80.67
59043;BME280;44826;51.596;5.624;2023-05-24T06:12:15;102335.72;;;9.57;79.36
59043;BME280;44826;51.596;5.624;2023-05-24T06:14:41;102345.28;;;9.61;79.97
59043;BME280;44826;51.596;5.624;2023-05-24T06:17:06;102340.09;;;9.66;80.00
59043;BME280;44826;51.596;5.624;2023-05-24T06:19:31;102349.63;;;9.70;79.16
59043;BME280;44826;51.596;5.624;2023-05-24T06:21:57;102351.34;;;9.74;78.83
59043;BME280;44826;51.596;5.624;2023-05-24T06:24:23;102339.22;;;9.76;78.47
59043;BME280;44826;51.596;5.624;2023-05-24T06:26:50;102343.56;;;9.80;78.50
59043;BME280;44826;51.596;5.624;2023-05-24T06:29:15;102354.00;;;9.86;78.85
59043;BME280;44826;51.596;5.624;2023-05-24T06:31:43;102363.53;;;9.92;78.80
59043;BME280;44826;51.596;5.624;2023-05-24T06:34:11;102354.00;;;9.99;78.68
59043;BME280;44826;51.596;5.624;2023-05-24T06:36:36;102354.88;;;10.06;79.79
59043;BME280;44826;51.596;5.624;2023-05-24T06:39:05;102358.34;;;10.12;78.23
59043;BME280;44826;51.596;5.624;2023-05-24T06:41:30;102351.41;;;10.19;78.25
59043;BME280;44826;51.596;5.624;2023-05-24T06:43:55;102352.28;;;10.24;78.22
59043;BME280;44826;51.596;5.624;2023-05-24T06:46:21;102351.41;;;10.28;78.95
59043;BME280;44826;51.596;5.624;2023-05-24T06:48:46;102347.94;;;10.36;78.44
59043;BME280;44826;51.596;5.624;2023-05-24T06:51:11;102344.50;;;10.40;77.65
59043;BME280;44826;51.596;5.624;2023-05-24T06:53:36;102346.22;;;10.45;77.59
59043;BME280;44826;51.596;5.624;2023-05-24T06:56:02;102346.22;;;10.52;77.15
59043;BME280;44826;51.596;5.624;2023-05-24T06:58:27;102349.69;;;10.58;77.67
59043;BME280;44826;51.596;5.624;2023-05-24T07:00:52;102354.00;;;10.64;76.75
59043;BME280;44826;51.596;5.624;2023-05-24T07:03:18;102361.78;;;10.72;76.99
59043;BME280;44826;51.596;5.624;2023-05-24T07:05:43;102357.44;;;10.82;77.31
59043;BME280;44826;51.596;5.624;2023-05-24T07:08:08;102360.88;;;10.96;77.37
59043;BME280;44826;51.596;5.624;2023-05-24T07:10:34;102359.13;;;11.07;74.79
59043;BME280;44826;51.596;5.624;2023-05-24T07:12:59;102355.59;;;11.18;73.78
59043;BME280;44826;51.596;5.624;2023-05-24T07:15:25;102359.06;;;11.26;72.30
59043;BME280;44826;51.596;5.624;2023-05-24T07:17:50;102371.16;;;11.30;72.90
59043;BME280;44826;51.596;5.624;2023-05-24T07:20:16;102367.69;;;11.31;71.43
59043;BME280;44826;51.596;5.624;2023-05-24T07:22:42;102368.56;;;11.33;71.92
59043;BME280;44826;51.596;5.624;2023-05-24T07:25:08;102366.78;;;11.37;71.31
59043;BME280;44826;51.596;5.624;2023-05-24T07:27:33;102370.25;;;11.42;72.08
59043;BME280;44826;51.596;5.624;2023-05-24T07:29:59;102364.16;;;11.48;70.65
59043;BME280;44826;51.596;5.624;2023-05-24T07:32:24;102365.88;;;11.52;71.11
59043;BME280;44826;51.596;5.624;2023-05-24T07:34:49;102361.50;;;11.57;71.31
59043;BME280;44826;51.596;5.624;2023-05-24T07:37:15;102364.09;;;11.59;72.07
59043;BME280;44826;51.596;5.624;2023-05-24T07:39:41;102370.16;;;11.62;72.43
59043;BME280;44826;51.596;5.624;2023-05-24T07:42:06;102369.25;;;11.69;69.91
59043;BME280;44826;51.596;5.624;2023-05-24T07:44:32;102370.06;;;11.76;68.80
59043;BME280;44826;51.596;5.624;2023-05-24T07:46:57;102370.97;;;11.77;69.07
59043;BME280;44826;51.596;5.624;2023-05-24T07:49:22;102363.09;;;11.80;69.08
59043;BME280;44826;51.596;5.624;2023-05-24T07:51:48;102370.03;;;11.86;69.58
59043;BME280;44826;51.596;5.624;2023-05-24T07:54:13;102366.53;;;11.91;68.57
59043;BME280;44826;51.596;5.624;2023-05-24T07:56:42;102371.72;;;11.93;68.30
59043;BME280;44826;51.596;5.624;2023-05-24T07:59:08;102372.56;;;11.99;68.10
59043;BME280;44826;51.596;5.624;2023-05-24T08:01:33;102363.84;;;12.07;69.37
59043;BME280;44826;51.596;5.624;2023-05-24T08:04:01;102368.13;;;12.16;67.54
59043;BME280;44826;51.596;5.624;2023-05-24T08:06:28;102375.91;;;12.20;67.63
59043;BME280;44826;51.596;5.624;2023-05-24T08:08:53;102368.00;;;12.31;67.19
59043;BME280;44826;51.596;5.624;2023-05-24T08:11:18;102370.56;;;12.34;64.38
59043;BME280;44826;51.596;5.624;2023-05-24T08:13:44;102374.03;;;12.35;65.78
59043;BME280;44826;51.596;5.624;2023-05-24T08:16:09;102362.69;;;12.39;65.38
59043;BME280;44826;51.596;5.624;2023-05-24T08:18:34;102361.72;;;12.49;66.15
59043;BME280;44826;51.596;5.624;2023-05-24T08:21:00;102359.91;;;12.57;66.66
59043;BME280;44826;51.596;5.624;2023-05-24T08:23:26;102356.41;;;12.60;65.74
59043;BME280;44826;51.596;5.624;2023-05-24T08:25:54;102358.09;;;12.66;66.89
59043;BME280;44826;51.596;5.624;2023-05-24T08:28:19;102351.88;;;12.79;67.29
59043;BME280;44826;51.596;5.624;2023-05-24T08:30:45;102355.25;;;12.89;64.51
59043;BME280;44826;51.596;5.624;2023-05-24T08:33:10;102356.94;;;12.93;64.57
59043;BME280;44826;51.596;5.624;2023-05-24T08:35:35;102359.50;;;12.98;65.75
59043;BME280;44826;51.596;5.624;2023-05-24T08:38:01;102361.19;;;13.03;64.17
59043;BME280;44826;51.596;5.624;2023-05-24T08:40:26;102357.69;;;13.04;61.34
59043;BME280;44826;51.596;5.624;2023-05-24T08:42:52;102355.91;;;13.06;63.08
59043;BME280;44826;51.596;5.624;2023-05-24T08:45:20;102352.31;;;13.15;65.20
59043;BME280;44826;51.596;5.624;2023-05-24T08:47:46;102353.88;;;13.32;65.12
59043;BME280;44826;51.596;5.624;2023-05-24T08:50:12;102338.06;;;13.43;63.76
59043;BME280;44826;51.596;5.624;2023-05-24T08:52:38;102346.75;;;13.46;61.72
59043;BME280;44826;51.596;5.624;2023-05-24T08:55:04;102341.53;;;13.43;60.85
59043;BME280;44826;51.596;5.624;2023-05-24T08:57:34;102347.69;;;13.36;60.83
59043;BME280;44826;51.596;5.624;2023-05-24T09:00:04;102348.69;;;13.29;62.38
59043;BME280;44826;51.596;5.624;2023-05-24T09:02:30;102347.00;;;13.21;60.89
59043;BME280;44826;51.596;5.624;2023-05-24T09:04:57;102347.00;;;13.21;61.16
59043;BME280;44826;51.596;5.624;2023-05-24T09:07:23;102333.94;;;13.23;60.52
59043;BME280;44826;51.596;5.624;2023-05-24T09:09:59;102339.97;;;13.28;61.38
59043;BME280;44826;51.596;5.624;2023-05-24T09:12:26;102339.88;;;13.33;61.75
59043;BME280;44826;51.596;5.624;2023-05-24T09:14:55;102332.84;;;13.41;61.98
59043;BME280;44826;51.596;5.624;2023-05-24T09:17:21;102330.94;;;13.53;60.03
59043;BME280;44826;51.596;5.624;2023-05-24T09:19:48;102331.72;;;13.61;60.05
59043;BME280;44826;51.596;5.624;2023-05-24T09:22:15;102328.88;;;13.76;59.33
59043;BME280;44826;51.596;5.624;2023-05-24T09:24:48;102337.28;;;13.95;60.63
59043;BME280;44826;51.596;5.624;2023-05-24T09:27:18;102330.09;;;14.08;58.75
59043;BME280;44826;51.596;5.624;2023-05-24T09:29:46;102336.00;;;14.20;57.44
59043;BME280;44826;51.596;5.624;2023-05-24T09:32:18;102336.91;;;14.19;57.06
59043;BME280;44826;51.596;5.624;2023-05-24T09:34:46;102323.91;;;14.16;56.68
59043;BME280;44826;51.596;5.624;2023-05-24T09:37:14;102338.81;;;14.10;57.57
59043;BME280;44826;51.596;5.624;2023-05-24T09:39:43;102325.81;;;14.04;57.82
59043;BME280;44826;51.596;5.624;2023-05-24T09:42:16;102328.41;;;14.06;57.85
59043;BME280;44826;51.596;5.624;2023-05-24T09:44:45;102328.38;;;14.07;57.81
59043;BME280;44826;51.596;5.624;2023-05-24T09:47:11;102330.09;;;14.08;56.80
59043;BME280;44826;51.596;5.624;2023-05-24T09:49:36;102331.03;;;14.06;57.72
59043;BME280;44826;51.596;5.624;2023-05-24T09:52:02;102327.44;;;14.11;59.39
59043;BME280;44826;51.596;5.624;2023-05-24T09:54:27;102318.50;;;14.25;58.37
59043;BME280;44826;51.596;5.624;2023-05-24T09:56:53;102319.16;;;14.36;56.39
59043;BME280;44826;51.596;5.624;2023-05-24T09:59:18;102314.59;;;14.46;56.00
59043;BME280;44826;51.596;5.624;2023-05-24T10:01:43;102315.31;;;14.56;56.54
59043;BME280;44826;51.596;5.624;2023-05-24T10:04:10;102313.44;;;14.63;54.84
59043;BME280;44826;51.596;5.624;2023-05-24T10:06:35;102311.59;;;14.69;56.02
59043;BME280;44826;51.596;5.624;2023-05-24T10:09:03;102316.72;;;14.76;55.42
59043;BME280;44826;51.596;5.624;2023-05-24T10:11:34;102316.72;;;14.76;54.03
59043;BME280;44826;51.596;5.624;2023-05-24T10:14:03;102315.13;;;14.68;55.43
59043;BME280;44826;51.596;5.624;2023-05-24T10:16:28;102320.44;;;14.62;56.12
59043;BME280;44826;51.596;5.624;2023-05-24T10:18:54;102317.09;;;14.54;55.85
59043;BME280;44826;51.596;5.624;2023-05-24T10:21:22;102317.28;;;14.45;56.59
59043;BME280;44826;51.596;5.624;2023-05-24T10:23:50;102313.81;;;14.42;56.02
59043;BME280;44826;51.596;5.624;2023-05-24T10:26:18;102319.94;;;14.41;56.95
59043;BME280;44826;51.596;5.624;2023-05-24T10:28:46;102313.88;;;14.39;57.33
59043;BME280;44826;51.596;5.624;2023-05-24T10:33:41;102318.25;;;14.39;58.93
59043;BME280;44826;51.596;5.624;2023-05-24T10:36:09;102316.53;;;14.38;57.82
59043;BME280;44826;51.596;5.624;2023-05-24T10:38:38;102319.09;;;14.39;57.99
59043;BME280;44826;51.596;5.624;2023-05-24T10:41:08;102315.59;;;14.42;56.24
59043;BME280;44826;51.596;5.624;2023-05-24T10:43:34;102313.75;;;14.46;55.94
59043;BME280;44826;51.596;5.624;2023-05-24T10:46:02;102320.72;;;14.47;56.07
59043;BME280;44826;51.596;5.624;2023-05-24T10:50:54;102322.41;;;14.51;55.04
59043;BME280;44826;51.596;5.624;2023-05-24T10:53:21;102320.69;;;14.50;56.93
59043;BME280;44826;51.596;5.624;2023-05-24T10:55:57;102323.16;;;14.56;56.52
59043;BME280;44826;51.596;5.624;2023-05-24T10:58:42;102327.41;;;14.63;56.12
59043;BME280;44826;51.596;5.624;2023-05-24T11:01:27;102317.72;;;14.67;56.50
59043;BME280;44826;51.596;5.624;2023-05-24T11:04:14;102320.38;;;14.68;56.65
59043;BME280;44826;51.596;5.624;2023-05-24T11:06:55;102322.00;;;14.72;56.79
59043;BME280;44826;51.596;5.624;2023-05-24T11:09:22;102316.78;;;14.72;55.00
59043;BME280;44826;51.596;5.624;2023-05-24T11:11:50;102322.88;;;14.73;57.03
59043;BME280;44826;51.596;5.624;2023-05-24T11:14:21;102314.09;;;14.77;57.41
59043;BME280;44826;51.596;5.624;2023-05-24T11:16:48;102326.09;;;14.87;56.73
59043;BME280;44826;51.596;5.624;2023-05-24T11:19:18;102321.59;;;14.94;56.10
59043;BME280;44826;51.596;5.624;2023-05-24T11:21:48;102318.88;;;14.99;55.07
59043;BME280;44826;51.596;5.624;2023-05-24T11:24:18;102330.19;;;15.02;55.30
59043;BME280;44826;51.596;5.624;2023-05-24T11:26:43;102317.97;;;15.00;53.43
59043;BME280;44826;51.596;5.624;2023-05-24T11:29:11;102319.75;;;14.99;53.37
59043;BME280;44826;51.596;5.624;2023-05-24T11:31:37;102316.22;;;15.00;54.24
59043;BME280;44826;51.596;5.624;2023-05-24T11:34:04;102313.47;;;15.07;56.02
59043;BME280;44826;51.596;5.624;2023-05-24T11:36:31;102304.53;;;15.15;55.37
59043;BME280;44826;51.596;5.624;2023-05-24T11:38:57;102310.59;;;15.19;55.41
59043;BME280;44826;51.596;5.624;2023-05-24T11:41:22;102313.13;;;15.22;55.05
59043;BME280;44826;51.596;5.624;2023-05-24T11:43:48;102310.50;;;15.22;55.52
59043;BME280;44826;51.596;5.624;2023-05-24T11:46:14;102313.06;;;15.27;55.72
59043;BME280;44826;51.596;5.624;2023-05-24T11:48:39;102313.84;;;15.30;53.16
59043;BME280;44826;51.596;5.624;2023-05-24T11:51:04;102310.22;;;15.36;55.20
59043;BME280;44826;51.596;5.624;2023-05-24T11:53:30;102310.94;;;15.43;53.90
59043;BME280;44826;51.596;5.624;2023-05-24T11:55:55;102301.97;;;15.53;54.48
59043;BME280;44826;51.596;5.624;2023-05-24T11:58:23;102305.31;;;15.60;52.46
59043;BME280;44826;51.596;5.624;2023-05-24T12:00:50;102307.84;;;15.65;53.88
59043;BME280;44826;51.596;5.624;2023-05-24T12:03:16;102303.34;;;15.70;53.54
59043;BME280;44826;51.596;5.624;2023-05-24T12:05:42;102303.25;;;15.73;52.98
59043;BME280;44826;51.596;5.624;2023-05-24T12:08:10;102299.66;;;15.77;54.65
59043;BME280;44826;51.596;5.624;2023-05-24T12:10:38;102304.78;;;15.83;53.70
59043;BME280;44826;51.596;5.624;2023-05-24T12:13:05;102303.84;;;15.87;53.47
59043;BME280;44826;51.596;5.624;2023-05-24T12:15:31;102310.72;;;15.91;53.86
59043;BME280;44826;51.596;5.624;2023-05-24T12:17:57;102300.31;;;15.88;52.56
59043;BME280;44826;51.596;5.624;2023-05-24T12:20:23;102300.38;;;15.85;53.13
59043;BME280;44826;51.596;5.624;2023-05-24T12:22:51;102302.34;;;15.74;52.89
59043;BME280;44826;51.596;5.624;2023-05-24T12:25:18;102301.69;;;15.66;53.71
59043;BME280;44826;51.596;5.624;2023-05-24T12:27:55;102297.34;;;15.65;54.50
59043;BME280;44826;51.596;5.624;2023-05-24T12:30:22;102293.75;;;15.69;52.84
59043;BME280;44826;51.596;5.624;2023-05-24T12:32:48;102295.31;;;15.76;52.91
59043;BME280;44826;51.596;5.624;2023-05-24T12:35:16;102295.16;;;15.82;52.43
59043;BME280;44826;51.596;5.624;2023-05-24T12:37:41;102297.59;;;15.91;53.47
59043;BME280;44826;51.596;5.624;2023-05-24T12:40:20;102287.78;;;16.00;53.48
59043;BME280;44826;51.596;5.624;2023-05-24T12:42:49;102294.56;;;16.07;52.93
59043;BME280;44826;51.596;5.624;2023-05-24T12:45:16;102295.47;;;16.06;50.84
59043;BME280;44826;51.596;5.624;2023-05-24T12:47:48;102300.91;;;15.98;50.70
59043;BME280;44826;51.596;5.624;2023-05-24T12:50:13;102298.41;;;15.93;52.15
59043;BME280;44826;51.596;5.624;2023-05-24T12:52:41;102306.34;;;15.90;53.19
59043;BME280;44826;51.596;5.624;2023-05-24T12:55:06;102303.72;;;15.92;51.14
59043;BME280;44826;51.596;5.624;2023-05-24T12:57:32;102305.38;;;15.95;51.39
59043;BME280;44826;51.596;5.624;2023-05-24T12:59:57;102302.75;;;15.95;50.99
59043;BME280;44826;51.596;5.624;2023-05-24T13:02:22;102297.50;;;15.95;51.60
59043;BME280;44826;51.596;5.624;2023-05-24T13:04:48;102294.06;;;15.92;52.52
59043;BME280;44826;51.596;5.624;2023-05-24T13:07:13;102296.66;;;15.94;52.76